sensor_id;sensor_type;location;lat;lon;timestamp;pressure;altitude;pressure_sealevel;temperature;humidity
33454;BME280;39400;49.744;7.012;2023-07-31T00:02:17;95876.16;;;19.25;69.69
33454;BME280;39400;49.744;7.012;2023-07-31T00:04:42;95876.22;;;19.57;69.35
33454;BME280;39400;49.744;7.012;2023-07-31T00:07:08;95871.81;;;19.46;69.69
33454;BME280;39400;49.744;7.012;2023-07-31T00:09:33;95875.72;;;19.27;70.29
33454;BME280;39400;49.744;7.012;2023-07-31T00:11:59;95878.66;;;19.11;70.65
33454;BME280;39400;49.744;7.012;2023-07-31T00:14:24;95875.06;;;19.23;70.69
33454;BME280;39400;49.744;7.012;2023-07-31T00:16:50;95885.06;;;19.33;70.64
33454;BME280;39400;49.744;7.012;2023-07-31T00:19:15;95872.59;;;19.47;70.71
33454;BME280;39400;49.744;7.012;2023-07-31T00:21:40;95875.44;;;19.34;70.93
33454;BME280;39400;49.744;7.012;2023-07-31T00:24:06;95876.22;;;19.13;72.23
33454;BME280;39400;49.744;7.012;2023-07-31T00:26:31;95867.66;;;19.29;72.00
33454;BME280;39400;49.744;7.012;2023-07-31T00:28:57;95871.84;;;18.77;74.93
33454;BME280;39400;49.744;7.012;2023-07-31T00:31:23;95870.31;;;18.76;74.47
33454;BME280;39400;49.744;7.012;2023-07-31T00:33:48;95885.88;;;18.86;73.66
33454;BME280;39400;49.744;7.012;2023-07-31T00:36:14;95874.13;;;19.04;73.53
33454;BME280;39400;49.744;7.012;2023-07-31T00:38:39;95863.81;;;19.14;73.93
33454;BME280;39400;49.744;7.012;2023-07-31T00:41:05;95873.44;;;18.78;76.73
33454;BME280;39400;49.744;7.012;2023-07-31T00:43:30;95866.91;;;18.46;78.71
33454;BME280;39400;49.744;7.012;2023-07-31T00:45:56;95859.16;;;18.76;79.30
33454;BME280;39400;49.744;7.012;2023-07-31T00:48:21;95866.63;;;18.79;78.95
33454;BME280;39400;49.744;7.012;2023-07-31T00:50:47;95869.75;;;18.68;80.07
33454;BME280;39400;49.744;7.012;2023-07-31T00:53:13;95877.88;;;18.88;79.61
33454;BME280;39400;49.744;7.012;2023-07-31T00:55:38;95870.19;;;18.67;81.63
33454;BME280;39400;49.744;7.012;2023-07-31T00:58:05;95865.91;;;18.15;85.05
33454;BME280;39400;49.744;7.012;2023-07-31T01:00:30;95861.81;;;18.67;83.44
33454;BME280;39400;49.744;7.012;2023-07-31T01:02:56;95858.03;;;18.86;82.32
33454;BME280;39400;49.744;7.012;2023-07-31T01:05:29;95856.50;;;18.60;83.85
33454;BME280;39400;49.744;7.012;2023-07-31T01:08:09;95844.91;;;18.61;84.36
33454;BME280;39400;49.744;7.012;2023-07-31T01:10:47;95846.28;;;18.57;84.96
33454;BME280;39400;49.744;7.012;2023-07-31T01:13:15;95845.69;;;18.62;84.45
33454;BME280;39400;49.744;7.012;2023-07-31T01:15:40;95840.00;;;18.78;84.34
33454;BME280;39400;49.744;7.012;2023-07-31T01:18:05;95837.00;;;18.60;85.23
33454;BME280;39400;49.744;7.012;2023-07-31T01:20:31;95834.44;;;18.78;84.39
33454;BME280;39400;49.744;7.012;2023-07-31T01:23:26;95840.00;;;18.78;84.48
33454;BME280;39400;49.744;7.012;2023-07-31T01:28:50;95830.56;;;18.97;84.17
33454;BME280;39400;49.744;7.012;2023-07-31T01:31:21;95831.75;;;19.31;82.44
33454;BME280;39400;49.744;7.012;2023-07-31T01:33:49;95822.53;;;19.43;82.07
33454;BME280;39400;49.744;7.012;2023-07-31T01:36:15;95810.06;;;19.79;80.53
33454;BME280;39400;49.744;7.012;2023-07-31T01:38:41;95818.25;;;19.52;81.00
33454;BME280;39400;49.744;7.012;2023-07-31T01:41:07;95803.84;;;19.75;79.73
33454;BME280;39400;49.744;7.012;2023-07-31T01:43:33;95801.16;;;19.40;79.43
33454;BME280;39400;49.744;7.012;2023-07-31T01:45:58;95812.03;;;19.25;80.83
33454;BME280;39400;49.744;7.012;2023-07-31T01:48:23;95817.09;;;19.18;80.02
33454;BME280;39400;49.744;7.012;2023-07-31T01:50:49;95807.97;;;18.95;81.22
33454;BME280;39400;49.744;7.012;2023-07-31T01:53:14;95812.63;;;18.98;81.19
33454;BME280;39400;49.744;7.012;2023-07-31T01:55:40;95800.38;;;19.40;79.67
33454;BME280;39400;49.744;7.012;2023-07-31T01:58:07;95802.81;;;19.38;79.56
33454;BME280;39400;49.744;7.012;2023-07-31T02:00:32;95805.94;;;19.40;78.86
33454;BME280;39400;49.744;7.012;2023-07-31T02:02:59;95806.34;;;19.07;79.72
33454;BME280;39400;49.744;7.012;2023-07-31T02:05:24;95800.09;;;18.81;80.74
33454;BME280;39400;49.744;7.012;2023-07-31T02:07:50;95803.34;;;19.23;80.61
33454;BME280;39400;49.744;7.012;2023-07-31T02:10:15;95808.19;;;19.32;79.06
33454;BME280;39400;49.744;7.012;2023-07-31T02:12:40;95798.19;;;19.13;79.43
33454;BME280;39400;49.744;7.012;2023-07-31T02:15:06;95790.53;;;19.79;77.43
33454;BME280;39400;49.744;7.012;2023-07-31T02:17:31;95785.66;;;19.70;77.59
33454;BME280;39400;49.744;7.012;2023-07-31T02:19:57;95779.75;;;20.00;75.29
33454;BME280;39400;49.744;7.012;2023-07-31T02:22:22;95783.38;;;19.47;77.66
33454;BME280;39400;49.744;7.012;2023-07-31T02:24:48;95780.81;;;19.09;78.29
33454;BME280;39400;49.744;7.012;2023-07-31T02:27:14;95775.44;;;19.45;77.40
33454;BME280;39400;49.744;7.012;2023-07-31T02:29:39;95760.66;;;19.89;75.11
33454;BME280;39400;49.744;7.012;2023-07-31T02:32:04;95764.28;;;19.67;76.14
33454;BME280;39400;49.744;7.012;2023-07-31T02:34:30;95768.97;;;19.48;76.69
33454;BME280;39400;49.744;7.012;2023-07-31T02:36:55;95763.53;;;19.45;76.99
33454;BME280;39400;49.744;7.012;2023-07-31T02:39:21;95767.63;;;19.62;76.77
33454;BME280;39400;49.744;7.012;2023-07-31T02:41:46;95763.88;;;19.03;77.97
33454;BME280;39400;49.744;7.012;2023-07-31T02:44:11;95766.84;;;19.62;77.03
33454;BME280;39400;49.744;7.012;2023-07-31T02:46:37;95774.69;;;18.79;79.00
33454;BME280;39400;49.744;7.012;2023-07-31T02:49:02;95771.69;;;19.39;77.78
33454;BME280;39400;49.744;7.012;2023-07-31T02:51:28;95770.28;;;19.35;77.60
33454;BME280;39400;49.744;7.012;2023-07-31T02:53:53;95769.13;;;19.76;75.70
33454;BME280;39400;49.744;7.012;2023-07-31T02:56:18;95768.59;;;19.37;77.34
33454;BME280;39400;49.744;7.012;2023-07-31T02:58:44;95771.81;;;19.58;76.37
33454;BME280;39400;49.744;7.012;2023-07-31T03:01:09;95773.63;;;19.52;76.36
33454;BME280;39400;49.744;7.012;2023-07-31T03:03:35;95774.09;;;19.50;76.81
33454;BME280;39400;49.744;7.012;2023-07-31T03:06:00;95770.06;;;19.82;76.25
33454;BME280;39400;49.744;7.012;2023-07-31T03:08:26;95771.59;;;19.21;77.03
33454;BME280;39400;49.744;7.012;2023-07-31T03:10:51;95762.75;;;19.44;76.34
33454;BME280;39400;49.744;7.012;2023-07-31T03:13:17;95774.31;;;19.12;77.10
33454;BME280;39400;49.744;7.012;2023-07-31T03:15:42;95768.22;;;19.26;77.57
33454;BME280;39400;49.744;7.012;2023-07-31T03:18:08;95770.03;;;18.76;nan
33454;BME280;39400;49.744;7.012;2023-07-31T03:20:33;95767.69;;;19.18;77.64
33454;BME280;39400;49.744;7.012;2023-07-31T03:22:58;95771.09;;;18.91;78.67
33454;BME280;39400;49.744;7.012;2023-07-31T03:25:23;95769.78;;;18.83;78.66
33454;BME280;39400;49.744;7.012;2023-07-31T03:27:50;95767.97;;;18.89;78.61
33454;BME280;39400;49.744;7.012;2023-07-31T03:30:15;95755.66;;;18.99;77.99
33454;BME280;39400;49.744;7.012;2023-07-31T03:32:41;95728.44;;;19.04;77.93
33454;BME280;39400;49.744;7.012;2023-07-31T03:35:06;95758.75;;;19.01;79.19
33454;BME280;39400;49.744;7.012;2023-07-31T03:37:32;95751.66;;;18.66;80.32
33454;BME280;39400;49.744;7.012;2023-07-31T03:39:57;95753.63;;;18.43;80.76
33454;BME280;39400;49.744;7.012;2023-07-31T03:42:22;95749.13;;;18.59;81.41
33454;BME280;39400;49.744;7.012;2023-07-31T03:44:49;95755.47;;;18.59;81.72
33454;BME280;39400;49.744;7.012;2023-07-31T03:47:16;95756.44;;;18.43;81.85
33454;BME280;39400;49.744;7.012;2023-07-31T03:49:41;95757.56;;;18.33;82.85
33454;BME280;39400;49.744;7.012;2023-07-31T03:52:06;95749.84;;;17.90;84.28
33454;BME280;39400;49.744;7.012;2023-07-31T03:54:32;95749.00;;;18.62;83.02
33454;BME280;39400;49.744;7.012;2023-07-31T03:56:57;95738.97;;;18.30;83.95
33454;BME280;39400;49.744;7.012;2023-07-31T03:59:22;95738.50;;;18.66;82.84
33454;BME280;39400;49.744;7.012;2023-07-31T04:01:48;95734.28;;;18.96;81.82
33454;BME280;39400;49.744;7.012;2023-07-31T04:04:13;95727.09;;;18.51;83.04
33454;BME280;39400;49.744;7.012;2023-07-31T04:06:38;95733.72;;;18.67;83.38
33454;BME280;39400;49.744;7.012;2023-07-31T04:09:03;95720.09;;;18.47;83.97
33454;BME280;39400;49.744;7.012;2023-07-31T04:11:29;95723.28;;;18.58;83.78
33454;BME280;39400;49.744;7.012;2023-07-31T04:13:54;95717.19;;;18.50;84.28
33454;BME280;39400;49.744;7.012;2023-07-31T04:16:19;95716.00;;;18.73;83.64
33454;BME280;39400;49.744;7.012;2023-07-31T04:18:44;95712.06;;;18.49;84.21
33454;BME280;39400;49.744;7.012;2023-07-31T04:21:10;95718.41;;;18.49;83.89
33454;BME280;39400;49.744;7.012;2023-07-31T04:23:35;95710.91;;;18.37;85.32
33454;BME280;39400;49.744;7.012;2023-07-31T04:26:00;95716.59;;;18.56;84.47
33454;BME280;39400;49.744;7.012;2023-07-31T04:28:26;95714.66;;;18.43;85.44
33454;BME280;39400;49.744;7.012;2023-07-31T04:30:52;95723.06;;;18.18;86.33
33454;BME280;39400;49.744;7.012;2023-07-31T04:33:17;95720.28;;;18.52;85.61
33454;BME280;39400;49.744;7.012;2023-07-31T04:35:51;95720.28;;;18.52;85.49
33454;BME280;39400;49.744;7.012;2023-07-31T04:38:21;95718.19;;;18.57;85.70
33454;BME280;39400;49.744;7.012;2023-07-31T04:40:46;95712.63;;;18.57;85.98
33454;BME280;39400;49.744;7.012;2023-07-31T04:43:12;95715.06;;;18.54;85.82
33454;BME280;39400;49.744;7.012;2023-07-31T04:45:37;95712.63;;;19.00;84.05
33454;BME280;39400;49.744;7.012;2023-07-31T04:48:03;95706.56;;;18.58;85.78
33454;BME280;39400;49.744;7.012;2023-07-31T04:50:28;95710.75;;;18.75;85.81
33454;BME280;39400;49.744;7.012;2023-07-31T04:52:53;95714.00;;;18.39;86.34
33454;BME280;39400;49.744;7.012;2023-07-31T04:55:19;95710.63;;;18.22;87.79
33454;BME280;39400;49.744;7.012;2023-07-31T04:57:44;95710.84;;;18.15;88.76
33454;BME280;39400;49.744;7.012;2023-07-31T05:00:09;95707.47;;;18.33;87.83
33454;BME280;39400;49.744;7.012;2023-07-31T05:02:35;95710.56;;;18.35;88.50
33454;BME280;39400;49.744;7.012;2023-07-31T05:05:00;95705.47;;;18.21;88.34
33454;BME280;39400;49.744;7.012;2023-07-31T05:07:25;95697.31;;;18.39;87.00
33454;BME280;39400;49.744;7.012;2023-07-31T05:09:51;95696.97;;;18.37;87.44
33454;BME280;39400;49.744;7.012;2023-07-31T05:12:16;95692.25;;;18.69;87.70
33454;BME280;39400;49.744;7.012;2023-07-31T05:14:41;95696.56;;;18.61;86.16
33454;BME280;39400;49.744;7.012;2023-07-31T05:17:07;95690.34;;;18.22;88.94
33454;BME280;39400;49.744;7.012;2023-07-31T05:19:32;95692.16;;;18.72;88.53
33454;BME280;39400;49.744;7.012;2023-07-31T05:21:57;95689.91;;;18.45;87.77
33454;BME280;39400;49.744;7.012;2023-07-31T05:24:22;95686.69;;;18.69;87.20
33454;BME280;39400;49.744;7.012;2023-07-31T05:26:48;95684.75;;;19.00;86.12
33454;BME280;39400;49.744;7.012;2023-07-31T05:29:13;95688.88;;;18.52;87.05
33454;BME280;39400;49.744;7.012;2023-07-31T05:31:38;95678.59;;;19.37;84.39
33454;BME280;39400;49.744;7.012;2023-07-31T05:34:04;95680.34;;;19.53;84.27
33454;BME280;39400;49.744;7.012;2023-07-31T05:36:29;95691.28;;;18.63;87.13
33454;BME280;39400;49.744;7.012;2023-07-31T05:38:54;95686.97;;;18.84;87.64
33454;BME280;39400;49.744;7.012;2023-07-31T05:41:20;95685.19;;;18.55;88.06
33454;BME280;39400;49.744;7.012;2023-07-31T05:43:45;95690.78;;;18.20;90.85
33454;BME280;39400;49.744;7.012;2023-07-31T05:46:11;95681.03;;;18.16;91.36
33454;BME280;39400;49.744;7.012;2023-07-31T05:48:36;95683.47;;;18.14;92.03
33454;BME280;39400;49.744;7.012;2023-07-31T05:51:01;95682.94;;;18.41;91.04
33454;BME280;39400;49.744;7.012;2023-07-31T05:53:27;95680.84;;;18.32;90.85
33454;BME280;39400;49.744;7.012;2023-07-31T05:55:52;95685.75;;;18.28;91.19
33454;BME280;39400;49.744;7.012;2023-07-31T05:58:17;95683.31;;;18.30;92.59
33454;BME280;39400;49.744;7.012;2023-07-31T06:00:43;95688.22;;;18.26;92.96
33454;BME280;39400;49.744;7.012;2023-07-31T06:03:08;95688.97;;;18.39;91.98
33454;BME280;39400;49.744;7.012;2023-07-31T06:05:33;95690.47;;;18.75;91.35
33454;BME280;39400;49.744;7.012;2023-07-31T06:07:58;95688.63;;;18.59;91.52
33454;BME280;39400;49.744;7.012;2023-07-31T06:10:24;95693.56;;;18.77;90.77
33454;BME280;39400;49.744;7.012;2023-07-31T06:12:49;95675.31;;;18.76;90.43
33454;BME280;39400;49.744;7.012;2023-07-31T06:15:14;95665.84;;;18.95;89.77
33454;BME280;39400;49.744;7.012;2023-07-31T06:17:40;95676.22;;;18.73;90.71
33454;BME280;39400;49.744;7.012;2023-07-31T06:20:06;95669.59;;;18.58;92.10
33454;BME280;39400;49.744;7.012;2023-07-31T06:22:32;95680.22;;;18.94;90.90
33454;BME280;39400;49.744;7.012;2023-07-31T06:24:58;95684.09;;;18.52;92.75
33454;BME280;39400;49.744;7.012;2023-07-31T06:27:23;95687.28;;;18.64;92.04
33454;BME280;39400;49.744;7.012;2023-07-31T06:29:48;95674.69;;;18.72;92.93
33454;BME280;39400;49.744;7.012;2023-07-31T06:32:14;95678.44;;;18.78;92.52
33454;BME280;39400;49.744;7.012;2023-07-31T06:34:39;95676.72;;;18.59;92.67
33454;BME280;39400;49.744;7.012;2023-07-31T06:37:05;95663.38;;;18.97;91.39
33454;BME280;39400;49.744;7.012;2023-07-31T06:39:30;95661.34;;;19.29;90.18
33454;BME280;39400;49.744;7.012;2023-07-31T06:41:55;95655.88;;;18.85;91.19
33454;BME280;39400;49.744;7.012;2023-07-31T06:44:22;95648.84;;;19.34;90.12
33454;BME280;39400;49.744;7.012;2023-07-31T06:46:47;95648.66;;;19.28;89.72
33454;BME280;39400;49.744;7.012;2023-07-31T06:49:13;95659.03;;;19.28;89.91
33454;BME280;39400;49.744;7.012;2023-07-31T06:51:38;95656.56;;;19.70;88.66
33454;BME280;39400;49.744;7.012;2023-07-31T06:54:03;95654.56;;;19.30;90.25
33454;BME280;39400;49.744;7.012;2023-07-31T06:56:29;95650.28;;;19.47;89.61
33454;BME280;39400;49.744;7.012;2023-07-31T06:58:55;95647.03;;;19.09;90.19
33454;BME280;39400;49.744;7.012;2023-07-31T07:01:21;95651.44;;;19.28;90.76
33454;BME280;39400;49.744;7.012;2023-07-31T07:03:46;95641.31;;;19.53;90.77
33454;BME280;39400;49.744;7.012;2023-07-31T07:06:11;95637.88;;;19.48;89.59
33454;BME280;39400;49.744;7.012;2023-07-31T07:08:37;95646.22;;;19.39;89.51
33454;BME280;39400;49.744;7.012;2023-07-31T07:11:02;95646.19;;;19.30;90.47
33454;BME280;39400;49.744;7.012;2023-07-31T07:13:27;95637.44;;;19.59;89.73
33454;BME280;39400;49.744;7.012;2023-07-31T07:15:53;95641.66;;;19.64;89.54
33454;BME280;39400;49.744;7.012;2023-07-31T07:18:18;95637.31;;;19.54;88.79
33454;BME280;39400;49.744;7.012;2023-07-31T07:20:49;95633.97;;;19.68;89.33
33454;BME280;39400;49.744;7.012;2023-07-31T07:23:15;95640.69;;;20.26;87.03
33454;BME280;39400;49.744;7.012;2023-07-31T07:25:41;95634.31;;;20.25;85.89
33454;BME280;39400;49.744;7.012;2023-07-31T07:28:06;95631.69;;;20.31;84.76
33454;BME280;39400;49.744;7.012;2023-07-31T07:30:32;95627.50;;;20.63;84.09
33454;BME280;39400;49.744;7.012;2023-07-31T07:32:57;95623.72;;;20.84;83.84
33454;BME280;39400;49.744;7.012;2023-07-31T07:35:23;95632.44;;;20.50;82.82
33454;BME280;39400;49.744;7.012;2023-07-31T07:37:48;95625.28;;;20.85;81.67
33454;BME280;39400;49.744;7.012;2023-07-31T07:40:14;95633.69;;;20.03;81.94
33454;BME280;39400;49.744;7.012;2023-07-31T07:42:39;95624.06;;;20.77;81.83
33454;BME280;39400;49.744;7.012;2023-07-31T07:45:05;95621.47;;;20.09;82.14
33454;BME280;39400;49.744;7.012;2023-07-31T07:47:31;95623.31;;;20.58;81.39
33454;BME280;39400;49.744;7.012;2023-07-31T07:49:56;95623.28;;;20.40;79.95
33454;BME280;39400;49.744;7.012;2023-07-31T07:52:21;95623.47;;;20.18;80.91
33454;BME280;39400;49.744;7.012;2023-07-31T07:54:47;95637.75;;;20.20;81.15
33454;BME280;39400;49.744;7.012;2023-07-31T07:57:12;95606.56;;;20.58;80.53
33454;BME280;39400;49.744;7.012;2023-07-31T07:59:37;95603.59;;;20.43;79.56
33454;BME280;39400;49.744;7.012;2023-07-31T08:02:03;95616.34;;;20.17;80.96
33454;BME280;39400;49.744;7.012;2023-07-31T08:04:28;95606.72;;;20.18;78.91
33454;BME280;39400;49.744;7.012;2023-07-31T08:06:54;95612.00;;;20.34;79.39
33454;BME280;39400;49.744;7.012;2023-07-31T08:09:19;95599.28;;;20.24;78.59
33454;BME280;39400;49.744;7.012;2023-07-31T08:11:44;95608.28;;;20.37;79.74
33454;BME280;39400;49.744;7.012;2023-07-31T08:14:10;95606.13;;;20.51;77.87
33454;BME280;39400;49.744;7.012;2023-07-31T08:16:35;95606.56;;;20.58;78.53
33454;BME280;39400;49.744;7.012;2023-07-31T08:19:00;95598.63;;;20.75;77.36
33454;BME280;39400;49.744;7.012;2023-07-31T08:21:26;95591.97;;;20.36;77.69
33454;BME280;39400;49.744;7.012;2023-07-31T08:23:51;95602.34;;;20.45;78.24
33454;BME280;39400;49.744;7.012;2023-07-31T08:26:18;95591.97;;;20.08;78.08
33454;BME280;39400;49.744;7.012;2023-07-31T08:28:44;95611.03;;;19.91;79.50
33454;BME280;39400;49.744;7.012;2023-07-31T08:31:09;95611.22;;;20.25;78.90
33454;BME280;39400;49.744;7.012;2023-07-31T08:33:35;95602.66;;;19.82;79.12
33454;BME280;39400;49.744;7.012;2023-07-31T08:36:00;95592.31;;;20.19;79.36
33454;BME280;39400;49.744;7.012;2023-07-31T08:38:25;95581.88;;;20.02;78.43
33454;BME280;39400;49.744;7.012;2023-07-31T08:40:51;95575.69;;;20.53;77.00
33454;BME280;39400;49.744;7.012;2023-07-31T08:43:17;95569.81;;;19.95;77.93
33454;BME280;39400;49.744;7.012;2023-07-31T08:45:42;95588.25;;;20.21;77.11
33454;BME280;39400;49.744;7.012;2023-07-31T08:48:08;95594.91;;;20.32;76.75
33454;BME280;39400;49.744;7.012;2023-07-31T08:50:33;95591.63;;;20.71;76.76
33454;BME280;39400;49.744;7.012;2023-07-31T08:52:59;95587.47;;;20.38;76.12
33454;BME280;39400;49.744;7.012;2023-07-31T08:55:25;95591.19;;;21.14;75.68
33454;BME280;39400;49.744;7.012;2023-07-31T08:57:51;95586.06;;;21.13;75.09
33454;BME280;39400;49.744;7.012;2023-07-31T09:00:19;95587.41;;;21.27;75.23
33454;BME280;39400;49.744;7.012;2023-07-31T09:02:48;95580.47;;;21.13;74.50
33454;BME280;39400;49.744;7.012;2023-07-31T09:05:16;95583.81;;;21.26;74.21
33454;BME280;39400;49.744;7.012;2023-07-31T09:07:44;95592.50;;;21.38;74.00
33454;BME280;39400;49.744;7.012;2023-07-31T09:10:11;95576.50;;;21.38;73.95
33454;BME280;39400;49.744;7.012;2023-07-31T09:12:36;95574.66;;;21.59;73.88
33454;BME280;39400;49.744;7.012;2023-07-31T09:15:03;95561.09;;;21.00;73.24
33454;BME280;39400;49.744;7.012;2023-07-31T09:17:32;95558.47;;;20.97;73.05
33454;BME280;39400;49.744;7.012;2023-07-31T09:20:12;95571.63;;;20.54;74.21
33454;BME280;39400;49.744;7.012;2023-07-31T09:22:39;95569.94;;;20.56;75.25
33454;BME280;39400;49.744;7.012;2023-07-31T09:25:22;95559.66;;;20.72;75.26
33454;BME280;39400;49.744;7.012;2023-07-31T09:27:58;95557.22;;;20.55;74.55
33454;BME280;39400;49.744;7.012;2023-07-31T09:30:24;95549.91;;;20.58;74.98
33454;BME280;39400;49.744;7.012;2023-07-31T09:32:51;95559.69;;;20.53;75.27
33454;BME280;39400;49.744;7.012;2023-07-31T09:37:49;95547.31;;;19.90;80.87
33454;BME280;39400;49.744;7.012;2023-07-31T09:40:25;95575.38;;;20.14;80.58
33454;BME280;39400;49.744;7.012;2023-07-31T09:42:50;95576.25;;;20.75;79.42
33454;BME280;39400;49.744;7.012;2023-07-31T09:45:18;95572.81;;;20.80;78.61
33454;BME280;39400;49.744;7.012;2023-07-31T09:47:47;95583.06;;;20.83;77.61
33454;BME280;39400;49.744;7.012;2023-07-31T09:50:14;95576.69;;;20.83;76.61
33454;BME280;39400;49.744;7.012;2023-07-31T09:52:39;95575.81;;;21.10;76.18
33454;BME280;39400;49.744;7.012;2023-07-31T09:55:05;95582.25;;;21.34;76.14
33454;BME280;39400;49.744;7.012;2023-07-31T09:57:31;95580.25;;;21.59;74.19
33454;BME280;39400;49.744;7.012;2023-07-31T09:59:58;95576.03;;;21.64;74.61
33454;BME280;39400;49.744;7.012;2023-07-31T10:02:24;95578.09;;;21.54;73.15
33454;BME280;39400;49.744;7.012;2023-07-31T10:04:50;95571.81;;;21.02;73.50
33454;BME280;39400;49.744;7.012;2023-07-31T10:07:17;95563.63;;;21.22;74.49
33454;BME280;39400;49.744;7.012;2023-07-31T10:09:44;95568.28;;;20.92;74.13
33454;BME280;39400;49.744;7.012;2023-07-31T10:12:12;95567.25;;;20.71;72.93
33454;BME280;39400;49.744;7.012;2023-07-31T10:14:39;95562.63;;;21.44;72.81
33454;BME280;39400;49.744;7.012;2023-07-31T10:17:07;95548.50;;;21.05;73.06
33454;BME280;39400;49.744;7.012;2023-07-31T10:19:34;95554.72;;;21.42;72.65
33454;BME280;39400;49.744;7.012;2023-07-31T10:22:00;95554.00;;;21.80;72.22
33454;BME280;39400;49.744;7.012;2023-07-31T10:24:26;95559.63;;;21.95;71.61
33454;BME280;39400;49.744;7.012;2023-07-31T10:26:53;95549.38;;;22.16;71.70
33454;BME280;39400;49.744;7.012;2023-07-31T10:29:23;95570.69;;;22.14;71.25
33454;BME280;39400;49.744;7.012;2023-07-31T10:31:50;95559.66;;;21.71;71.07
33454;BME280;39400;49.744;7.012;2023-07-31T10:34:16;95541.00;;;21.92;71.25
33454;BME280;39400;49.744;7.012;2023-07-31T10:36:42;95541.84;;;22.22;70.91
33454;BME280;39400;49.744;7.012;2023-07-31T10:39:36;95539.88;;;21.75;69.87
33454;BME280;39400;49.744;7.012;2023-07-31T10:42:12;95549.06;;;21.75;70.75
33454;BME280;39400;49.744;7.012;2023-07-31T10:44:38;95557.22;;;22.03;70.41
33454;BME280;39400;49.744;7.012;2023-07-31T10:47:03;95544.19;;;22.68;70.37
33454;BME280;39400;49.744;7.012;2023-07-31T10:49:29;95549.50;;;21.98;69.29
33454;BME280;39400;49.744;7.012;2023-07-31T10:51:55;95548.00;;;21.49;70.63
33454;BME280;39400;49.744;7.012;2023-07-31T10:54:21;95560.81;;;21.31;71.56
33454;BME280;39400;49.744;7.012;2023-07-31T10:56:46;95544.53;;;20.87;72.79
33454;BME280;39400;49.744;7.012;2023-07-31T10:59:15;95555.44;;;20.76;73.20
33454;BME280;39400;49.744;7.012;2023-07-31T11:01:56;95555.38;;;20.95;73.25
33454;BME280;39400;49.744;7.012;2023-07-31T11:04:23;95547.25;;;20.63;73.13
33454;BME280;39400;49.744;7.012;2023-07-31T11:06:58;95539.03;;;20.69;73.85
33454;BME280;39400;49.744;7.012;2023-07-31T11:09:28;95572.13;;;21.04;73.14
33454;BME280;39400;49.744;7.012;2023-07-31T11:11:53;95558.88;;;21.13;72.65
33454;BME280;39400;49.744;7.012;2023-07-31T11:14:20;95561.63;;;21.56;72.63
33454;BME280;39400;49.744;7.012;2023-07-31T11:16:45;95557.53;;;21.33;71.02
33454;BME280;39400;49.744;7.012;2023-07-31T11:19:14;95544.97;;;21.28;72.02
33454;BME280;39400;49.744;7.012;2023-07-31T11:21:40;95558.47;;;21.30;72.20
33454;BME280;39400;49.744;7.012;2023-07-31T11:24:05;95546.28;;;21.51;72.00
33454;BME280;39400;49.744;7.012;2023-07-31T11:26:30;95541.88;;;21.26;72.80
33454;BME280;39400;49.744;7.012;2023-07-31T11:28:56;95544.13;;;21.46;72.88
33454;BME280;39400;49.744;7.012;2023-07-31T11:31:21;95554.78;;;21.57;73.55
33454;BME280;39400;49.744;7.012;2023-07-31T11:33:47;95561.56;;;20.99;74.82
33454;BME280;39400;49.744;7.012;2023-07-31T11:36:20;95545.75;;;20.96;75.91
33454;BME280;39400;49.744;7.012;2023-07-31T11:38:46;95550.25;;;21.26;74.93
33454;BME280;39400;49.744;7.012;2023-07-31T11:41:13;95567.03;;;21.26;73.58
33454;BME280;39400;49.744;7.012;2023-07-31T11:43:39;95538.81;;;21.72;73.67
33454;BME280;39400;49.744;7.012;2023-07-31T11:46:04;95538.81;;;21.72;72.95
33454;BME280;39400;49.744;7.012;2023-07-31T11:48:37;95543.78;;;21.20;73.18
33454;BME280;39400;49.744;7.012;2023-07-31T11:51:04;95550.56;;;21.28;73.44
33454;BME280;39400;49.744;7.012;2023-07-31T11:53:35;95552.56;;;20.95;74.02
33454;BME280;39400;49.744;7.012;2023-07-31T11:56:02;95554.13;;;21.62;73.90
33454;BME280;39400;49.744;7.012;2023-07-31T11:58:29;95555.91;;;21.50;73.63
33454;BME280;39400;49.744;7.012;2023-07-31T12:00:55;95535.78;;;21.04;74.83
33454;BME280;39400;49.744;7.012;2023-07-31T12:03:22;95554.72;;;20.57;76.49
33454;BME280;39400;49.744;7.012;2023-07-31T12:05:48;95545.88;;;20.59;76.23
33454;BME280;39400;49.744;7.012;2023-07-31T12:08:13;95521.91;;;20.76;75.73
33454;BME280;39400;49.744;7.012;2023-07-31T12:10:39;95525.88;;;20.42;77.14
33454;BME280;39400;49.744;7.012;2023-07-31T12:13:12;95532.03;;;21.07;76.18
33454;BME280;39400;49.744;7.012;2023-07-31T12:15:45;95524.75;;;21.81;74.81
33454;BME280;39400;49.744;7.012;2023-07-31T12:18:19;95538.31;;;21.98;72.89
33454;BME280;39400;49.744;7.012;2023-07-31T12:20:58;95515.38;;;21.46;72.49
33454;BME280;39400;49.744;7.012;2023-07-31T12:23:26;95519.88;;;21.67;73.06
33454;BME280;39400;49.744;7.012;2023-07-31T12:28:40;95521.91;;;21.43;73.13
33454;BME280;39400;49.744;7.012;2023-07-31T12:31:08;95529.06;;;21.44;73.74
33454;BME280;39400;49.744;7.012;2023-07-31T12:33:35;95521.19;;;22.20;72.81
33454;BME280;39400;49.744;7.012;2023-07-31T12:36:09;95520.41;;;22.19;73.06
33454;BME280;39400;49.744;7.012;2023-07-31T12:38:34;95513.13;;;21.59;73.25
33454;BME280;39400;49.744;7.012;2023-07-31T12:41:00;95521.56;;;20.83;75.83
33454;BME280;39400;49.744;7.012;2023-07-31T12:43:25;95519.16;;;21.09;75.66
33454;BME280;39400;49.744;7.012;2023-07-31T12:45:50;95529.59;;;21.00;76.43
33454;BME280;39400;49.744;7.012;2023-07-31T12:48:16;95519.25;;;20.12;77.99
33454;BME280;39400;49.744;7.012;2023-07-31T12:50:41;95537.88;;;20.06;79.45
33454;BME280;39400;49.744;7.012;2023-07-31T12:53:07;95525.16;;;20.05;79.23
33454;BME280;39400;49.744;7.012;2023-07-31T12:55:33;95546.56;;;19.89;81.40
33454;BME280;39400;49.744;7.012;2023-07-31T12:57:58;95554.75;;;19.84;90.65
33454;BME280;39400;49.744;7.012;2023-07-31T13:00:24;95538.13;;;20.35;86.28
33454;BME280;39400;49.744;7.012;2023-07-31T13:02:49;95538.91;;;20.36;86.40
33454;BME280;39400;49.744;7.012;2023-07-31T13:05:14;95541.38;;;19.60;90.22